Time;durP1;ratioP1;P1;durP2;ratioP2;P2;SDS_P1;SDS_P2;PMS_P1;PMS_P2;Temp;Humidity;BMP_temperature;BMP_pressure;BME280_temperature;BME280_humidity;BME280_pressure;Samples;Min_cycle;Max_cycle;Signal;HPM_P1;HPM_P2
2021/08/13 00:01:52;;;;;;;;;;;;;;;26.70;62.49;101242.28;5108888;28;1893;-69
2021/08/13 00:04:19;;;;;;;;;;;;;;;26.72;64.83;101247.53;5108556;28;1082;-69
2021/08/13 00:06:46;;;;;;;;;;;;;;;26.73;64.20;101254.53;5107172;28;1266;-68
2021/08/13 00:09:12;;;;;;;;;;;;;;;26.76;65.76;101259.63;5108600;28;1086;-68
2021/08/13 00:11:40;;;;;;;;;;;;;;;26.75;64.72;101260.63;5108503;28;1270;-67
2021/08/13 00:14:07;;;;;;;;;;;;;;;26.69;62.55;101261.16;5106561;28;1178;-67
2021/08/13 00:16:35;;;;;;;;;;;;;;;26.67;62.29;101255.91;5106612;28;1204;-67
2021/08/13 00:19:02;;;;;;;;;;;;;;;26.67;62.63;101261.25;5108290;28;1002;-68
2021/08/13 00:21:29;;;;;;;;;;;;;;;26.66;62.35;101258.72;5108007;28;1973;-69
2021/08/13 00:23:56;;;;;;;;;;;;;;;26.63;62.51;101258.97;5108285;28;1062;-68
2021/08/13 00:26:23;;;;;;;;;;;;;;;26.63;63.07;101249.97;5108001;28;1179;-68
2021/08/13 00:28:49;;;;;;;;;;;;;;;26.61;63.46;101257.28;5108031;28;1107;-67
2021/08/13 00:31:16;;;;;;;;;;;;;;;26.60;63.86;101250.22;5108099;28;1141;-67
2021/08/13 00:33:43;;;;;;;;;;;;;;;26.57;62.29;101239.78;5098858;28;1107;-67
2021/08/13 00:36:10;;;;;;;;;;;;;;;26.59;64.10;101259.22;5108305;28;1196;-67
2021/08/13 00:38:36;;;;;;;;;;;;;;;26.55;63.37;101251.56;5107787;28;1467;-67
2021/08/13 00:41:03;;;;;;;;;;;;;;;26.58;64.79;101245.97;5107937;28;1233;-67
2021/08/13 00:43:30;;;;;;;;;;;;;;;26.61;64.67;101254.59;5107017;28;1987;-67
2021/08/13 00:45:57;;;;;;;;;;;;;;;26.59;64.66;101256.56;5107732;28;1204;-67
2021/08/13 00:48:23;;;;;;;;;;;;;;;26.59;64.22;101248.53;5111413;28;1126;-67
2021/08/13 00:50:50;;;;;;;;;;;;;;;26.59;64.93;101237.00;5111537;28;1183;-68
2021/08/13 00:53:17;;;;;;;;;;;;;;;26.56;64.84;101246.13;5111538;28;1139;-69
2021/08/13 00:55:47;;;;;;;;;;;;;;;26.54;64.02;101240.03;5111988;28;1297;-69
2021/08/13 00:58:14;;;;;;;;;;;;;;;26.54;63.71;101229.34;5111719;28;1024;-69
2021/08/13 01:00:42;;;;;;;;;;;;;;;26.57;64.08;101245.13;5111544;28;1286;-69
2021/08/13 01:03:09;;;;;;;;;;;;;;;26.56;63.48;101245.25;5111396;28;1910;-71
2021/08/13 01:05:36;;;;;;;;;;;;;;;26.55;63.34;101236.41;5111632;28;1277;-69
2021/08/13 01:08:03;;;;;;;;;;;;;;;26.51;62.86;101232.28;5111588;28;1132;-67
2021/08/13 01:10:31;;;;;;;;;;;;;;;26.50;62.17;101238.59;5111617;28;1247;-68
2021/08/13 01:13:04;;;;;;;;;;;;;;;26.52;61.14;101239.31;5110558;27;1597;-68
2021/08/13 01:15:32;;;;;;;;;;;;;;;26.53;61.06;101237.50;5111095;28;1180;-68
2021/08/13 01:17:59;;;;;;;;;;;;;;;26.53;59.88;101238.34;5111219;28;1136;-68
2021/08/13 01:20:25;;;;;;;;;;;;;;;26.56;59.31;101239.91;5111270;28;1200;-67
2021/08/13 01:22:56;;;;;;;;;;;;;;;26.55;59.32;101240.88;5110988;28;1997;-68
2021/08/13 01:25:26;;;;;;;;;;;;;;;26.51;60.35;101232.28;5111154;28;1306;-68
2021/08/13 01:27:54;;;;;;;;;;;;;;;26.53;60.34;101238.34;5110742;28;1269;-67
2021/08/13 01:30:21;;;;;;;;;;;;;;;26.52;60.20;101242.00;5110850;28;1180;-68
2021/08/13 01:32:50;;;;;;;;;;;;;;;26.52;60.05;101244.66;5110870;28;1071;-68
2021/08/13 01:35:20;;;;;;;;;;;;;;;26.48;60.08;101235.19;5111195;28;1239;-67
2021/08/13 01:37:50;;;;;;;;;;;;;;;26.49;60.00;101234.22;5110677;28;924;-67
2021/08/13 01:40:18;;;;;;;;;;;;;;;26.52;59.96;101236.66;5092483;28;1528;-67
2021/08/13 01:42:46;;;;;;;;;;;;;;;26.52;59.05;101236.66;5110507;28;1909;-68
2021/08/13 01:45:15;;;;;;;;;;;;;;;26.51;59.99;101228.75;5110236;28;1212;-67
2021/08/13 01:47:43;;;;;;;;;;;;;;;26.51;59.45;101234.94;5092116;28;793;-67
2021/08/13 01:50:10;;;;;;;;;;;;;;;26.51;59.14;101234.94;5110776;28;1266;-67
2021/08/13 01:52:37;;;;;;;;;;;;;;;26.54;59.10;101242.69;5110394;28;1142;-68
2021/08/13 01:55:04;;;;;;;;;;;;;;;26.53;59.09;101243.69;5110733;28;1270;-68
2021/08/13 01:57:31;;;;;;;;;;;;;;;26.50;58.17;101259.97;5110414;28;848;-67
2021/08/13 01:59:58;;;;;;;;;;;;;;;26.47;58.42;101270.91;5110604;28;1279;-67
2021/08/13 02:02:25;;;;;;;;;;;;;;;26.49;58.13;101276.97;5110072;28;1967;-67
2021/08/13 02:04:53;;;;;;;;;;;;;;;26.51;57.24;101268.81;5110752;28;1311;-67
2021/08/13 02:07:20;;;;;;;;;;;;;;;26.49;57.67;101273.44;5091830;28;1250;-67
2021/08/13 02:09:48;;;;;;;;;;;;;;;26.46;57.59;101268.34;5110088;28;1330;-68
2021/08/13 02:12:14;;;;;;;;;;;;;;;26.46;57.44;101281.72;5110096;28;1114;-68
2021/08/13 02:14:41;;;;;;;;;;;;;;;26.45;57.91;101288.88;5110293;28;1090;-68
2021/08/13 02:17:11;;;;;;;;;;;;;;;26.43;56.37;101290.81;5109853;28;1265;-68
2021/08/13 02:19:53;;;;;;;;;;;;;;;26.45;56.70;101288.88;5110119;28;1111;-68
2021/08/13 02:22:19;;;;;;;;;;;;;;;26.41;57.49;101306.13;5109987;28;1917;-69
2021/08/13 02:24:46;;;;;;;;;;;;;;;26.34;58.34;101314.75;5125278;27;1231;-68
2021/08/13 02:27:13;;;;;;;;;;;;;;;26.34;58.95;101317.41;5110254;28;897;-68
2021/08/13 02:29:40;;;;;;;;;;;;;;;26.36;58.99;101324.34;5110032;28;1192;-68
2021/08/13 02:32:07;;;;;;;;;;;;;;;26.35;59.79;101332.47;5109157;28;1258;-69
2021/08/13 02:34:34;;;;;;;;;;;;;;;26.32;60.61;101330.91;5108966;28;1118;-68
2021/08/13 02:37:00;;;;;;;;;;;;;;;26.34;60.60;101320.09;5109504;28;1302;-68
2021/08/13 02:39:39;;;;;;;;;;;;;;;26.31;61.42;101321.19;5109521;28;1359;-68
2021/08/13 02:42:06;;;;;;;;;;;;;;;26.32;62.53;101325.56;5109511;28;1906;-68
2021/08/13 02:44:34;;;;;;;;;;;;;;;26.33;63.03;101326.41;5109657;28;1105;-68
2021/08/13 02:47:08;;;;;;;;;;;;;;;26.30;63.69;101310.63;5109477;28;1201;-68
2021/08/13 02:49:41;;;;;;;;;;;;;;;26.32;62.57;101311.38;5109752;28;1082;-68
2021/08/13 02:52:08;;;;;;;;;;;;;;;26.31;63.01;101337.22;5091658;28;1331;-68
2021/08/13 02:54:37;;;;;;;;;;;;;;;26.32;63.89;101303.34;5109532;28;1147;-68
2021/08/13 02:57:04;;;;;;;;;;;;;;;26.29;64.38;101292.91;5109038;28;1211;-68
2021/08/13 02:59:33;;;;;;;;;;;;;;;26.33;64.37;101337.94;5109452;28;1027;-69
2021/08/13 03:02:01;;;;;;;;;;;;;;;26.32;65.38;101333.59;5108939;28;1309;-68
2021/08/13 03:04:29;;;;;;;;;;;;;;;26.28;64.29;101297.41;5091187;28;1190;-67
2021/08/13 03:06:56;;;;;;;;;;;;;;;26.31;64.20;101323.00;5108945;28;1261;-67
2021/08/13 03:09:23;;;;;;;;;;;;;;;26.33;65.67;101335.25;5109049;28;1163;-67
2021/08/13 03:11:52;;;;;;;;;;;;;;;26.30;64.68;101316.81;5109381;28;1232;-68
2021/08/13 03:14:20;;;;;;;;;;;;;;;26.29;66.19;101314.28;5109092;28;1047;-68
2021/08/13 03:16:50;;;;;;;;;;;;;;;26.34;66.20;101336.97;5109143;28;1299;-68
2021/08/13 03:19:18;;;;;;;;;;;;;;;26.34;66.04;101338.78;5109035;28;928;-68
2021/08/13 03:21:46;;;;;;;;;;;;;;;26.32;64.39;101319.38;5109200;28;1283;-68
2021/08/13 03:24:13;;;;;;;;;;;;;;;26.32;65.16;101309.56;5108497;28;1910;-68
2021/08/13 03:26:40;;;;;;;;;;;;;;;26.33;64.72;101323.72;5108659;28;1320;-68
2021/08/13 03:29:07;;;;;;;;;;;;;;;26.29;63.25;101333.84;5108353;28;1040;-68
2021/08/13 03:31:34;;;;;;;;;;;;;;;26.25;64.52;101326.16;5108599;28;1316;-68
2021/08/13 03:34:02;;;;;;;;;;;;;;;26.26;63.10;101325.22;5108607;28;1122;-68
2021/08/13 03:36:29;;;;;;;;;;;;;;;26.30;64.20;101331.97;5073466;28;1342;-68
2021/08/13 03:38:56;;;;;;;;;;;;;;;26.29;63.55;101335.66;5108392;28;2040;-68
2021/08/13 03:41:23;;;;;;;;;;;;;;;26.24;64.39;101317.31;5108927;28;1267;-68
2021/08/13 03:43:49;;;;;;;;;;;;;;;26.23;63.26;101318.28;5108788;28;1967;-68
2021/08/13 03:46:16;;;;;;;;;;;;;;;26.25;63.64;101332.38;5108533;28;1303;-68
2021/08/13 03:48:43;;;;;;;;;;;;;;;26.25;63.79;101345.72;5124122;28;1214;-68
2021/08/13 03:51:09;;;;;;;;;;;;;;;26.27;63.30;101342.91;5108471;28;1228;-68
2021/08/13 03:53:36;;;;;;;;;;;;;;;26.27;63.42;101335.75;5108326;28;1193;-68
2021/08/13 03:56:03;;;;;;;;;;;;;;;26.29;63.42;101339.16;5090742;28;1223;-68
2021/08/13 03:58:30;;;;;;;;;;;;;;;26.29;62.80;101344.50;5108547;28;1109;-68
2021/08/13 04:00:56;;;;;;;;;;;;;;;26.28;62.99;101340.13;5107737;28;1533;-69
2021/08/13 04:03:23;;;;;;;;;;;;;;;26.30;62.97;101331.97;5089810;28;1973;-69
2021/08/13 04:05:50;;;;;;;;;;;;;;;26.28;63.60;101340.13;5108827;28;1240;-68
2021/08/13 04:08:17;;;;;;;;;;;;;;;26.26;63.29;101342.09;5108496;28;1075;-69
2021/08/13 04:10:43;;;;;;;;;;;;;;;26.26;62.15;101347.44;5108324;28;1223;-69
2021/08/13 04:13:10;;;;;;;;;;;;;;;26.23;60.12;101337.00;5108264;28;991;-69
2021/08/13 04:15:38;;;;;;;;;;;;;;;26.22;60.24;101335.28;5108402;28;1239;-69
2021/08/13 04:18:05;;;;;;;;;;;;;;;26.25;62.15;101331.50;5108792;28;1155;-69
2021/08/13 04:20:32;;;;;;;;;;;;;;;26.21;61.63;101328.22;5090030;28;1228;-69
2021/08/13 04:22:59;;;;;;;;;;;;;;;26.23;60.92;101330.78;5111928;28;1977;-69
2021/08/13 04:25:25;;;;;;;;;;;;;;;26.21;62.16;101320.22;5111618;28;1302;-69
2021/08/13 04:27:52;;;;;;;;;;;;;;;26.19;61.56;101316.84;5112280;28;845;-69
2021/08/13 04:30:19;;;;;;;;;;;;;;;26.22;61.16;101334.44;5093765;28;1322;-68
2021/08/13 04:32:46;;;;;;;;;;;;;;;26.23;61.49;101336.13;5112207;28;1086;-67
2021/08/13 04:35:13;;;;;;;;;;;;;;;26.21;61.86;101343.41;5093663;28;1302;-67
2021/08/13 04:37:40;;;;;;;;;;;;;;;26.16;61.56;101333.09;5112240;28;1032;-67
2021/08/13 04:40:07;;;;;;;;;;;;;;;26.17;60.06;101337.47;5111714;28;1555;-68
2021/08/13 04:42:34;;;;;;;;;;;;;;;26.16;60.64;101349.13;5111655;28;1985;-68
2021/08/13 04:45:01;;;;;;;;;;;;;;;26.15;61.36;101334.06;5112227;28;1342;-68
2021/08/13 04:47:35;;;;;;;;;;;;;;;26.18;61.25;101339.16;5111639;28;936;-68
2021/08/13 04:50:02;;;;;;;;;;;;;;;26.18;61.82;101339.16;5111821;28;1263;-68
2021/08/13 04:52:29;;;;;;;;;;;;;;;26.18;60.65;101340.97;5093366;28;1147;-68
2021/08/13 04:54:56;;;;;;;;;;;;;;;26.19;61.53;101340.88;5111971;28;1267;-68
2021/08/13 04:57:22;;;;;;;;;;;;;;;26.21;61.24;101338.91;5126968;27;1027;-67
2021/08/13 04:59:49;;;;;;;;;;;;;;;26.21;61.49;101340.72;5111894;28;1381;-68
2021/08/13 05:02:20;;;;;;;;;;;;;;;26.20;61.62;101331.88;5111513;28;766;-68
2021/08/13 05:04:47;;;;;;;;;;;;;;;26.17;60.52;101340.16;5092817;28;1938;-68
2021/08/13 05:07:13;;;;;;;;;;;;;;;26.16;59.52;101338.44;5111345;28;865;-68
2021/08/13 05:09:40;;;;;;;;;;;;;;;26.16;60.67;101335.75;5110105;28;1355;-68
2021/08/13 05:12:06;;;;;;;;;;;;;;;26.19;61.80;101338.19;5110416;28;1263;-67
2021/08/13 05:14:33;;;;;;;;;;;;;;;26.16;61.28;101337.59;5110666;28;1061;-67
2021/08/13 05:17:00;;;;;;;;;;;;;;;26.17;60.50;101337.47;5110588;28;1243;-67
2021/08/13 05:19:26;;;;;;;;;;;;;;;26.18;61.75;101341.81;5110148;28;1157;-67
2021/08/13 05:21:53;;;;;;;;;;;;;;;26.18;61.79;101338.28;5110282;28;1243;-68
2021/08/13 05:24:20;;;;;;;;;;;;;;;26.18;61.50;101341.81;5110806;28;1990;-67
2021/08/13 05:26:47;;;;;;;;;;;;;;;26.20;61.42;101342.56;5091768;28;1207;-67
2021/08/13 05:29:13;;;;;;;;;;;;;;;26.21;60.79;101333.56;5110300;28;1192;-67
2021/08/13 05:31:40;;;;;;;;;;;;;;;26.20;61.44;101337.22;5090941;28;1208;-68
2021/08/13 05:34:07;;;;;;;;;;;;;;;26.22;61.24;101345.97;5109938;28;1072;-68
2021/08/13 05:36:33;;;;;;;;;;;;;;;26.23;61.43;101341.47;5110838;28;1192;-67
2021/08/13 05:39:00;;;;;;;;;;;;;;;26.25;61.16;101334.19;5110481;28;1505;-66
2021/08/13 05:41:27;;;;;;;;;;;;;;;26.26;61.52;101344.75;5092027;28;1656;-66
2021/08/13 05:43:53;;;;;;;;;;;;;;;26.25;60.85;101345.72;5110832;28;1909;-67
2021/08/13 05:46:20;;;;;;;;;;;;;;;26.28;60.81;101347.28;5109292;28;1447;-68
2021/08/13 05:48:47;;;;;;;;;;;;;;;26.29;60.89;101341.84;5109164;28;1135;-67
2021/08/13 05:51:13;;;;;;;;;;;;;;;26.29;60.77;101344.50;5109362;28;1330;-67
2021/08/13 05:53:40;;;;;;;;;;;;;;;26.30;60.29;101353.34;5109615;28;1092;-67
2021/08/13 05:56:07;;;;;;;;;;;;;;;26.30;60.80;101353.34;5109299;28;1347;-67
2021/08/13 05:58:34;;;;;;;;;;;;;;;26.31;60.13;101355.91;5109674;28;1055;-68
2021/08/13 06:01:02;;;;;;;;;;;;;;;26.32;60.37;101357.63;5109234;28;1286;-67
2021/08/13 06:03:29;;;;;;;;;;;;;;;26.34;58.82;101360.16;5109000;28;1941;-66
2021/08/13 06:05:56;;;;;;;;;;;;;;;26.35;57.27;101351.19;5108786;27;1514;-66
2021/08/13 06:08:22;;;;;;;;;;;;;;;26.34;56.12;101355.66;5109226;28;1455;-65
2021/08/13 06:10:49;;;;;;;;;;;;;;;26.33;54.35;101356.63;5109259;28;1423;-65
2021/08/13 06:13:16;;;;;;;;;;;;;;;26.37;53.99;101360.75;5109491;28;1116;-65
2021/08/13 06:15:43;;;;;;;;;;;;;;;26.35;53.25;101356.53;5108077;28;1208;-66
2021/08/13 06:18:10;;;;;;;;;;;;;;;26.35;52.95;101365.38;5109066;28;1123;-64
2021/08/13 06:20:36;;;;;;;;;;;;;;;26.35;52.60;101357.38;5109913;28;1605;-66
2021/08/13 06:23:03;;;;;;;;;;;;;;;26.35;52.53;101362.72;5109320;28;1909;-66
2021/08/13 06:25:30;;;;;;;;;;;;;;;26.37;52.00;101354.56;5108915;28;1604;-66
2021/08/13 06:27:57;;;;;;;;;;;;;;;26.40;51.74;101359.66;5109340;28;1087;-65
2021/08/13 06:30:23;;;;;;;;;;;;;;;26.40;51.52;101368.53;5109701;28;1291;-65
2021/08/13 06:32:53;;;;;;;;;;;;;;;26.42;51.33;101363.06;5109473;28;810;-66
2021/08/13 06:35:20;;;;;;;;;;;;;;;26.42;51.49;101371.94;5092188;27;1442;-64
2021/08/13 06:37:48;;;;;;;;;;;;;;;26.43;51.39;101368.28;5109317;28;779;-65
2021/08/13 06:40:15;;;;;;;;;;;;;;;26.45;51.48;101379.69;5109122;28;1376;-67
2021/08/13 06:42:42;;;;;;;;;;;;;;;26.44;51.27;101388.69;5108831;28;857;-66
2021/08/13 06:45:10;;;;;;;;;;;;;;;26.46;50.86;101378.72;5108928;28;1988;-67
2021/08/13 06:47:36;;;;;;;;;;;;;;;26.47;50.81;101384.94;5124922;27;1190;-67
2021/08/13 06:50:04;;;;;;;;;;;;;;;26.49;50.83;101383.84;5109559;28;1295;-67
2021/08/13 06:52:31;;;;;;;;;;;;;;;26.49;51.14;101383.84;5109151;28;1059;-66
2021/08/13 06:54:58;;;;;;;;;;;;;;;26.49;51.14;101380.31;5109473;28;1299;-67
2021/08/13 06:57:24;;;;;;;;;;;;;;;26.52;51.28;101380.91;5090463;28;1172;-67
2021/08/13 06:59:51;;;;;;;;;;;;;;;26.52;51.56;101391.59;5109343;28;1251;-64
2021/08/13 07:02:18;;;;;;;;;;;;;;;26.53;51.34;101390.63;5108365;28;1600;-66
2021/08/13 07:04:45;;;;;;;;;;;;;;;26.54;51.21;101386.97;5108908;28;1909;-64
2021/08/13 07:07:13;;;;;;;;;;;;;;;26.63;51.47;101378.22;5108937;28;1451;-68
2021/08/13 07:09:45;;;;;;;;;;;;;;;26.61;51.45;101380.19;5109054;28;1455;-66
2021/08/13 07:12:13;;;;;;;;;;;;;;;26.60;51.49;101382.97;5108661;28;1458;-66
2021/08/13 07:14:39;;;;;;;;;;;;;;;26.58;51.07;101380.44;5109499;28;1071;-68
2021/08/13 07:17:06;;;;;;;;;;;;;;;26.63;50.89;101384.56;5109151;28;1545;-67
2021/08/13 07:19:33;;;;;;;;;;;;;;;26.63;51.19;101380.03;5109467;28;1162;-68
2021/08/13 07:22:00;;;;;;;;;;;;;;;26.61;52.07;101379.31;5124349;27;1587;-71
2021/08/13 07:24:27;;;;;;;;;;;;;;;26.61;51.91;101382.84;5089518;28;1918;-68
2021/08/13 07:26:53;;;;;;;;;;;;;;;26.63;52.50;101391.59;5108816;28;1208;-70
2021/08/13 07:29:21;;;;;;;;;;;;;;;26.65;52.70;101385.28;5073727;28;1667;-70
2021/08/13 07:31:48;;;;;;;;;;;;;;;26.71;52.67;101384.78;5088911;28;1546;-66
2021/08/13 07:34:15;;;;;;;;;;;;;;;26.70;52.69;101383.06;5087576;28;1155;-69
2021/08/13 07:36:42;;;;;;;;;;;;;;;26.69;53.20;101382.22;5068019;28;1365;-68
2021/08/13 07:39:09;;;;;;;;;;;;;;;26.71;53.64;101390.13;5087208;28;1473;-69
2021/08/13 07:41:35;;;;;;;;;;;;;;;26.72;53.49;101387.31;5105943;28;1358;-67
2021/08/13 07:44:05;;;;;;;;;;;;;;;26.74;53.58;101395.22;5103947;28;1929;-66
2021/08/13 07:46:32;;;;;;;;;;;;;;;26.76;54.12;101395.94;5088672;28;1287;-67
2021/08/13 07:48:58;;;;;;;;;;;;;;;26.77;54.16;101397.66;5088622;28;1338;-66
2021/08/13 07:51:25;;;;;;;;;;;;;;;26.75;54.13;101403.09;5107025;28;1275;-64
2021/08/13 07:53:53;;;;;;;;;;;;;;;26.79;54.50;101414.41;5107558;28;1074;-65
2021/08/13 07:56:20;;;;;;;;;;;;;;;26.79;54.05;101415.25;5091365;28;1334;-65
2021/08/13 07:58:46;;;;;;;;;;;;;;;26.79;54.26;101409.06;5111534;28;1232;-64
2021/08/13 08:01:13;;;;;;;;;;;;;;;26.77;54.31;101409.19;5111566;28;1369;-64
2021/08/13 08:03:40;;;;;;;;;;;;;;;26.78;54.27;101413.53;5111056;28;1913;-67
2021/08/13 08:06:06;;;;;;;;;;;;;;;26.82;54.46;101414.19;5111388;28;1271;-67
2021/08/13 08:08:33;;;;;;;;;;;;;;;26.82;54.54;101416.84;5110718;28;1291;-66
2021/08/13 08:11:00;;;;;;;;;;;;;;;26.82;54.68;101424.88;5110602;28;1361;-68
2021/08/13 08:13:27;;;;;;;;;;;;;;;26.85;54.50;101420.13;5092888;28;1244;-71
2021/08/13 08:15:54;;;;;;;;;;;;;;;26.88;54.37;101429.72;5091294;28;1394;-74
2021/08/13 08:18:23;;;;;;;;;;;;;;;26.89;54.06;101431.44;5109827;28;1261;-74
2021/08/13 08:20:50;;;;;;;;;;;;;;;26.90;54.46;101430.47;5112541;27;1545;-68
2021/08/13 08:23:20;;;;;;;;;;;;;;;26.98;54.14;101431.56;5126903;27;1592;-66
2021/08/13 08:25:46;;;;;;;;;;;;;;;27.00;54.15;101434.94;5113435;27;1991;-66
2021/08/13 08:28:13;;;;;;;;;;;;;;;27.02;53.72;101437.50;5143125;27;1160;-66
2021/08/13 08:30:40;;;;;;;;;;;;;;;27.03;53.21;101440.03;5115133;27;1357;-67
2021/08/13 08:33:06;;;;;;;;;;;;;;;27.00;53.10;101434.09;5125880;27;1140;-69
2021/08/13 08:35:33;;;;;;;;;;;;;;;26.97;53.67;101445.03;5122155;27;1266;-67
2021/08/13 08:38:00;;;;;;;;;;;;;;;26.94;54.11;101437.25;5117906;27;1227;-67
2021/08/13 08:40:27;;;;;;;;;;;;;;;27.04;54.66;101448.91;5090030;28;1757;-67
2021/08/13 08:42:58;;;;;;;;;;;;;;;27.01;54.61;101449.16;5087276;28;1185;-67
2021/08/13 08:45:26;;;;;;;;;;;;;;;26.97;54.66;101443.22;5089248;28;1910;-67
2021/08/13 08:47:57;;;;;;;;;;;;;;;26.96;54.54;101438.81;5088679;28;1212;-67
2021/08/13 08:50:24;;;;;;;;;;;;;;;27.02;54.96;101442.84;5089424;28;1305;-68
2021/08/13 08:52:51;;;;;;;;;;;;;;;27.06;54.22;101441.59;5087446;28;1470;-72
2021/08/13 08:55:20;;;;;;;;;;;;;;;27.05;55.26;101454.13;5088689;28;1255;-68
2021/08/13 08:57:48;;;;;;;;;;;;;;;27.03;54.64;101449.88;5089412;28;1113;-69
2021/08/13 09:00:18;;;;;;;;;;;;;;;26.99;54.64;101448.44;5071561;28;1281;-69
2021/08/13 09:02:45;;;;;;;;;;;;;;;26.96;54.72;101454.88;5089798;28;1149;-67
2021/08/13 09:05:12;;;;;;;;;;;;;;;26.94;54.56;101461.31;5090110;28;1992;-67
2021/08/13 09:07:44;;;;;;;;;;;;;;;26.96;54.29;101459.38;5089068;28;830;-67
2021/08/13 09:10:12;;;;;;;;;;;;;;;26.94;54.31;101456.81;5089128;28;1341;-67
2021/08/13 09:12:39;;;;;;;;;;;;;;;26.94;54.59;101466.66;5089489;28;845;-68
2021/08/13 09:15:24;;;;;;;;;;;;;;;26.92;54.34;101464.13;5089565;28;1271;-69
2021/08/13 09:18:12;;;;;;;;;;;;;;;26.93;54.38;101468.47;5090002;28;802;-66
2021/08/13 09:20:42;;;;;;;;;;;;;;;26.95;54.15;101463.88;5089323;28;1353;-67
2021/08/13 09:23:10;;;;;;;;;;;;;;;26.93;54.22;101464.97;5089430;28;1048;-67
2021/08/13 09:25:37;;;;;;;;;;;;;;;26.93;54.15;101473.81;5104760;28;1910;-67
2021/08/13 09:28:04;;;;;;;;;;;;;;;26.91;54.08;101469.59;5104710;28;1105;-67
2021/08/13 09:30:50;;;;;;;;;;;;;;;26.93;53.93;101481.03;5089441;28;1275;-69
2021/08/13 09:33:17;;;;;;;;;;;;;;;26.92;53.93;101479.31;5089106;28;1166;-68
2021/08/13 09:35:44;;;;;;;;;;;;;;;26.91;54.05;101477.59;5089176;28;1203;-68
2021/08/13 09:38:12;;;;;;;;;;;;;;;26.94;53.54;101480.03;5089858;28;1542;-67
2021/08/13 09:40:40;;;;;;;;;;;;;;;26.93;53.67;101481.03;5109359;28;1283;-68
2021/08/13 09:43:08;;;;;;;;;;;;;;;26.89;53.38;101472.41;5109304;28;971;-69
2021/08/13 09:45:34;;;;;;;;;;;;;;;26.96;53.28;101467.41;5109479;28;1902;-68
2021/08/13 09:48:01;;;;;;;;;;;;;;;26.94;53.31;101469.34;5109651;28;1278;-68
2021/08/13 09:50:41;;;;;;;;;;;;;;;26.94;53.38;101466.66;5126787;27;1318;-68
2021/08/13 09:53:09;;;;;;;;;;;;;;;26.94;53.59;101470.19;5129804;27;1074;-68
2021/08/13 09:55:36;;;;;;;;;;;;;;;26.93;53.56;101470.34;5129728;27;1231;-68
2021/08/13 09:58:04;;;;;;;;;;;;;;;26.96;53.58;101470.09;5129434;27;1168;-68
2021/08/13 10:00:41;;;;;;;;;;;;;;;26.95;53.41;101458.53;5129229;27;1236;-68
2021/08/13 10:03:08;;;;;;;;;;;;;;;26.95;53.14;101466.56;5128405;27;1522;-66
2021/08/13 10:05:36;;;;;;;;;;;;;;;26.96;53.37;101462.06;5102150;28;1898;-67
2021/08/13 10:08:04;;;;;;;;;;;;;;;26.95;53.22;101465.69;5108751;28;1103;-67
2021/08/13 10:10:35;;;;;;;;;;;;;;;26.94;53.06;101459.50;5090231;28;1321;-67
2021/08/13 10:13:03;;;;;;;;;;;;;;;26.93;53.20;101460.47;5108930;28;1096;-68
2021/08/13 10:15:30;;;;;;;;;;;;;;;26.94;53.24;101464.00;5108816;28;1228;-69
2021/08/13 10:17:59;;;;;;;;;;;;;;;26.95;53.33;101457.69;5109093;28;1122;-68
2021/08/13 10:20:28;;;;;;;;;;;;;;;26.97;53.00;101461.06;5107924;28;1322;-68
2021/08/13 10:22:55;;;;;;;;;;;;;;;26.95;53.21;101463.03;5108634;28;1079;-68
2021/08/13 10:25:22;;;;;;;;;;;;;;;26.95;53.15;101463.03;5107851;28;1906;-68
2021/08/13 10:27:50;;;;;;;;;;;;;;;26.96;53.08;101460.22;5108044;28;1154;-67
2021/08/13 10:30:17;;;;;;;;;;;;;;;26.96;53.21;101462.06;5108765;28;1231;-68
2021/08/13 10:32:45;;;;;;;;;;;;;;;26.96;52.81;101460.22;5108188;28;802;-68
2021/08/13 10:35:12;;;;;;;;;;;;;;;26.96;52.78;101454.03;5113632;27;1649;-67
2021/08/13 10:37:41;;;;;;;;;;;;;;;26.96;52.54;101448.69;5114913;27;1314;-68
2021/08/13 10:40:09;;;;;;;;;;;;;;;26.96;52.83;101449.53;5128532;27;1662;-68
2021/08/13 10:42:41;;;;;;;;;;;;;;;26.97;52.66;101445.88;5110994;27;1165;-69
2021/08/13 10:45:09;;;;;;;;;;;;;;;26.99;52.38;101449.28;5089830;28;1968;-70
2021/08/13 10:47:39;;;;;;;;;;;;;;;27.00;52.61;101445.63;5108238;28;837;-68
2021/08/13 10:50:07;;;;;;;;;;;;;;;27.01;52.12;101447.34;5108430;28;1279;-68
2021/08/13 10:52:37;;;;;;;;;;;;;;;26.94;51.37;101447.94;5105734;28;797;-68
2021/08/13 10:55:07;;;;;;;;;;;;;;;26.77;50.72;101459.13;5107567;28;1302;-64
2021/08/13 10:57:49;;;;;;;;;;;;;;;26.70;50.52;101453.41;5107813;28;1122;-67
2021/08/13 11:00:17;;;;;;;;;;;;;;;26.67;50.27;101450.13;5107209;28;1322;-67
2021/08/13 11:03:02;;;;;;;;;;;;;;;26.62;50.38;101455.84;5108730;28;1040;-66
2021/08/13 11:05:58;;;;;;;;;;;;;;;26.61;50.96;101451.47;5107281;28;1893;-67
2021/08/13 11:08:46;;;;;;;;;;;;;;;26.56;50.00;101445.66;5103895;27;1160;-66
2021/08/13 11:11:13;;;;;;;;;;;;;;;26.52;49.78;101442.38;5087528;27;1295;-67
2021/08/13 11:13:41;;;;;;;;;;;;;;;26.51;49.59;101443.31;5107391;28;1024;-68
2021/08/13 11:16:27;;;;;;;;;;;;;;;26.51;49.32;101443.31;5107505;28;1310;-66
2021/08/13 11:18:56;;;;;;;;;;;;;;;26.48;49.36;101437.38;5105488;28;1300;-67
2021/08/13 11:21:34;;;;;;;;;;;;;;;26.43;49.44;101429.72;5106695;28;1330;-67
2021/08/13 11:24:02;;;;;;;;;;;;;;;26.45;48.80;101437.59;5088537;28;1068;-67
2021/08/13 11:26:48;;;;;;;;;;;;;;;26.41;49.03;101431.69;5106343;28;1910;-68
2021/08/13 11:29:30;;;;;;;;;;;;;;;26.38;48.85;101434.59;5088634;28;1146;-69
2021/08/13 11:32:00;;;;;;;;;;;;;;;26.42;48.75;101433.38;5106791;28;1232;-68
2021/08/13 11:34:46;;;;;;;;;;;;;;;26.43;48.75;101431.53;5107787;28;1041;-68
2021/08/13 11:37:46;;;;;;;;;;;;;;;26.42;49.14;101424.50;5107973;28;1261;-67
2021/08/13 11:40:16;;;;;;;;;;;;;;;26.41;48.87;101426.34;5113139;27;1567;-68
2021/08/13 11:42:51;;;;;;;;;;;;;;;26.40;48.85;101424.63;5129935;27;1118;-67
2021/08/13 11:45:18;;;;;;;;;;;;;;;26.39;48.31;101422.06;5111130;28;1901;-68
2021/08/13 11:47:46;;;;;;;;;;;;;;;26.41;48.49;101420.13;5128709;28;804;-67
2021/08/13 11:50:13;;;;;;;;;;;;;;;26.37;48.68;101418.69;5110429;28;1610;-69
2021/08/13 11:52:46;;;;;;;;;;;;;;;26.38;48.25;101421.25;5129185;28;783;-68
2021/08/13 11:55:22;;;;;;;;;;;;;;;26.37;48.13;101418.69;5129202;27;1235;-67
2021/08/13 11:57:50;;;;;;;;;;;;;;;26.36;48.23;101417.81;5128990;28;813;-67
2021/08/13 12:00:22;;;;;;;;;;;;;;;26.33;48.07;101415.38;5129576;27;1318;-68
2021/08/13 12:02:55;;;;;;;;;;;;;;;26.34;48.37;101414.44;5129247;28;758;-67
2021/08/13 12:05:26;;;;;;;;;;;;;;;26.33;48.02;101418.06;5110119;28;1973;-67
2021/08/13 12:07:58;;;;;;;;;;;;;;;26.32;48.09;101413.72;5129561;28;901;-68
2021/08/13 12:10:25;;;;;;;;;;;;;;;26.31;48.38;101414.66;5127095;27;1209;-69
2021/08/13 12:12:52;;;;;;;;;;;;;;;26.30;48.33;101418.31;5108523;28;1079;-69
2021/08/13 12:15:27;;;;;;;;;;;;;;;26.30;48.08;101420.97;5108392;28;1232;-67
2021/08/13 12:17:54;;;;;;;;;;;;;;;26.29;48.16;101413.09;5124370;28;1233;-69
2021/08/13 12:20:21;;;;;;;;;;;;;;;26.28;48.11;101409.56;5110215;28;1228;-68
2021/08/13 12:22:48;;;;;;;;;;;;;;;26.30;47.94;101412.09;5129252;28;1087;-68
2021/08/13 12:25:15;;;;;;;;;;;;;;;26.27;48.02;101407.84;5129163;27;1898;-67
2021/08/13 12:27:42;;;;;;;;;;;;;;;26.30;47.94;101407.63;5110773;28;936;-68
2021/08/13 12:30:15;;;;;;;;;;;;;;;26.32;49.17;101400.34;5110660;27;1370;-67
2021/08/13 12:32:43;;;;;;;;;;;;;;;26.32;48.69;101396.81;5125783;28;1077;-67
2021/08/13 12:35:11;;;;;;;;;;;;;;;26.36;49.79;101391.09;5124967;28;1599;-66
2021/08/13 12:37:39;;;;;;;;;;;;;;;26.36;48.90;101393.78;5124373;27;1995;-65
2021/08/13 12:40:07;;;;;;;;;;;;;;;26.37;49.43;101383.94;5110665;27;1354;-64
2021/08/13 12:42:34;;;;;;;;;;;;;;;26.41;48.75;101378.25;5109838;28;1051;-66
2021/08/13 12:45:01;;;;;;;;;;;;;;;26.36;49.26;101391.09;5120467;27;1909;-66
2021/08/13 12:47:28;;;;;;;;;;;;;;;26.36;48.71;101384.91;5114073;27;1019;-66
2021/08/13 12:49:55;;;;;;;;;;;;;;;26.41;48.94;101385.41;5110122;28;1321;-66
2021/08/13 12:52:24;;;;;;;;;;;;;;;26.38;48.87;101383.00;5109429;27;984;-64
2021/08/13 12:54:51;;;;;;;;;;;;;;;26.39;49.23;101387.34;5130217;27;1262;-64